createdAt,value
2022-11-16T00:01:14.933Z,23.92
2022-11-16T00:03:42.058Z,23.00
2022-11-16T00:06:09.693Z,22.40
2022-11-16T00:08:38.989Z,28.98
2022-11-16T00:11:06.820Z,22.25
2022-11-16T00:13:34.467Z,22.35
2022-11-16T00:16:01.674Z,22.55
2022-11-16T00:18:29.020Z,25.83
2022-11-16T00:20:55.796Z,26.80
2022-11-16T00:23:22.885Z,21.73
2022-11-16T00:25:50.145Z,21.88
2022-11-16T00:28:17.182Z,29.15
2022-11-16T00:30:43.826Z,22.35
2022-11-16T00:33:15.657Z,27.27
2022-11-16T00:35:42.414Z,27.33
2022-11-16T00:38:09.155Z,24.20
2022-11-16T00:40:35.745Z,24.27
2022-11-16T00:43:02.368Z,26.15
2022-11-16T00:45:29.042Z,25.20
2022-11-16T00:48:00.294Z,25.52
2022-11-16T00:50:27.702Z,28.80
2022-11-16T00:52:54.605Z,26.73
2022-11-16T00:55:21.406Z,28.67
2022-11-16T00:57:48.836Z,24.05
2022-11-16T01:00:17.655Z,26.23
2022-11-16T01:02:44.938Z,25.95
2022-11-16T01:05:12.033Z,30.60
2022-11-16T01:07:40.083Z,27.75
2022-11-16T01:10:10.836Z,27.42
2022-11-16T01:12:38.381Z,26.88
2022-11-16T01:15:08.977Z,26.17
2022-11-16T01:17:36.813Z,27.33
2022-11-16T01:20:06.013Z,29.40
2022-11-16T01:22:35.338Z,30.92
2022-11-16T01:25:02.144Z,30.25
2022-11-16T01:27:29.030Z,28.15
2022-11-16T01:29:57.283Z,31.50
2022-11-16T01:32:23.925Z,29.95
2022-11-16T01:34:50.875Z,31.95
2022-11-16T01:37:27.851Z,31.45
2022-11-16T01:39:54.441Z,33.78
2022-11-16T01:42:24.286Z,33.47
2022-11-16T01:45:04.882Z,29.65
2022-11-16T01:47:32.570Z,34.53
2022-11-16T01:50:12.401Z,34.42
2022-11-16T01:52:51.510Z,35.28
2022-11-16T01:55:35.576Z,38.10
2022-11-16T01:58:41.162Z,30.45
2022-11-16T02:01:31.059Z,36.22
2022-11-16T02:04:00.661Z,33.75
2022-11-16T02:07:16.082Z,36.67
2022-11-16T02:10:10.139Z,38.03
2022-11-16T02:13:11.521Z,36.00
2022-11-16T02:15:50.241Z,42.58
2022-11-16T02:18:35.611Z,40.83
2022-11-16T02:21:20.417Z,42.28
2022-11-16T02:24:11.657Z,45.38
2022-11-16T02:26:55.254Z,43.83
2022-11-16T02:29:45.647Z,44.47
2022-11-16T02:32:22.453Z,47.63
2022-11-16T02:34:57.265Z,47.72
2022-11-16T02:37:26.987Z,49.42
2022-11-16T02:39:57.493Z,48.05
2022-11-16T02:42:40.354Z,53.38
2022-11-16T02:45:09.976Z,54.53
2022-11-16T02:47:38.196Z,55.13
2022-11-16T02:50:10.698Z,54.40
2022-11-16T02:52:38.692Z,57.38
2022-11-16T02:55:08.798Z,55.10
2022-11-16T02:57:46.008Z,58.72
2022-11-16T03:00:51.926Z,60.25
2022-11-16T03:03:38.569Z,60.72
2022-11-16T03:06:18.795Z,56.55
2022-11-16T03:09:00.422Z,60.88
2022-11-16T03:11:50.399Z,52.58
2022-11-16T03:16:51.083Z,49.67
2022-11-16T03:19:45.175Z,53.10
2022-11-16T03:22:26.224Z,48.80
2022-11-16T03:24:53.484Z,51.92
2022-11-16T03:27:41.328Z,58.92
2022-11-16T03:30:12.760Z,48.97
2022-11-16T03:32:57.811Z,53.40
2022-11-16T03:35:46.644Z,53.58
2022-11-16T03:38:15.873Z,51.78
2022-11-16T03:40:47.305Z,52.17
2022-11-16T03:43:15.895Z,52.17
2022-11-16T03:45:43.140Z,50.38
2022-11-16T03:48:10.864Z,55.58
2022-11-16T03:50:37.637Z,56.40
2022-11-16T03:53:04.242Z,54.72
2022-11-16T03:55:31.517Z,51.30
2022-11-16T03:57:58.726Z,45.72
2022-11-16T04:00:25.373Z,56.83
2022-11-16T04:02:53.140Z,52.30
2022-11-16T04:05:40.167Z,49.28
2022-11-16T04:08:33.381Z,47.47
2022-11-16T04:11:18.732Z,48.40
2022-11-16T04:14:09.041Z,51.30
2022-11-16T04:16:55.429Z,48.30
2022-11-16T04:19:40.549Z,52.85
2022-11-16T04:22:44.562Z,48.20
2022-11-16T04:25:27.240Z,48.97
2022-11-16T07:28:48.613Z,77.47
2022-11-16T07:31:18.819Z,86.10
2022-11-16T07:33:46.121Z,101.57
2022-11-16T07:36:35.752Z,111.70
2022-11-16T07:39:03.395Z,112.00
2022-11-16T07:41:30.399Z,100.72
2022-11-16T07:44:12.377Z,116.75
2022-11-16T07:46:48.933Z,112.85
2022-11-16T07:49:18.845Z,104.65
2022-11-16T07:51:53.181Z,113.28
2022-11-16T07:54:42.819Z,100.05
2022-11-16T07:57:09.543Z,107.40
2022-11-16T07:59:36.276Z,98.03
2022-11-16T08:02:09.989Z,93.00
2022-11-16T08:04:38.756Z,94.63
2022-11-16T08:07:05.960Z,92.18
2022-11-16T08:09:38.037Z,90.75
2022-11-16T08:12:04.962Z,93.75
2022-11-16T08:14:32.684Z,95.47
2022-11-16T08:16:59.431Z,105.35
2022-11-16T08:19:26.383Z,103.05
2022-11-16T08:21:53.028Z,110.70
2022-11-16T08:24:20.070Z,111.03
2022-11-16T08:26:46.997Z,113.28
2022-11-16T08:29:15.824Z,105.97
2022-11-16T08:31:47.680Z,118.60
2022-11-16T08:34:18.341Z,115.47
2022-11-16T08:36:48.967Z,105.63
2022-11-16T08:39:17.327Z,101.38
2022-11-16T08:41:44.355Z,91.28
2022-11-16T08:44:11.700Z,83.82
2022-11-16T08:46:41.415Z,84.53
2022-11-16T08:49:23.925Z,82.75
2022-11-16T08:51:50.645Z,71.68
2022-11-16T08:54:18.687Z,72.50
2022-11-16T08:56:45.378Z,74.68
2022-11-16T08:59:12.541Z,65.22
2022-11-16T09:01:44.546Z,66.97
2022-11-16T09:04:11.700Z,66.47
2022-11-16T09:06:38.483Z,66.95
2022-11-16T09:09:05.149Z,62.13
2022-11-16T09:11:31.815Z,65.63
2022-11-16T09:13:59.264Z,63.88
2022-11-16T09:16:27.799Z,68.07
2022-11-16T09:18:57.525Z,60.22
2022-11-16T09:21:26.710Z,62.78
2022-11-16T09:23:57.432Z,57.08
2022-11-16T09:26:25.103Z,56.60
2022-11-16T09:28:59.923Z,57.45
2022-11-16T09:31:28.609Z,54.35
2022-11-16T09:33:58.616Z,59.22
2022-11-16T09:36:27.627Z,56.42
2022-11-16T09:39:23.745Z,54.38
2022-11-16T09:42:02.964Z,58.47
2022-11-16T09:44:50.993Z,55.80
2022-11-16T09:47:49.460Z,48.90
2022-11-16T09:50:44.259Z,55.08
2022-11-16T09:53:27.542Z,53.30
2022-11-16T09:56:04.201Z,52.70
2022-11-16T09:58:55.491Z,50.70
2022-11-16T10:01:25.002Z,54.50
2022-11-16T10:03:58.665Z,52.67
2022-11-16T10:06:57.554Z,52.30
2022-11-16T10:09:25.696Z,53.83
2022-11-16T10:12:06.478Z,59.10
2022-11-16T10:15:04.742Z,58.25
2022-11-16T10:18:01.648Z,60.22
2022-11-16T10:20:36.789Z,57.25
2022-11-16T10:23:35.661Z,63.45
2022-11-16T10:26:27.659Z,60.45
2022-11-16T10:29:12.688Z,60.88
2022-11-16T10:31:56.216Z,59.45
2022-11-16T10:34:37.046Z,61.38
2022-11-16T10:37:08.382Z,63.17
2022-11-16T10:39:40.261Z,64.07
2022-11-16T10:42:13.307Z,58.72
2022-11-16T10:44:44.507Z,57.97
2022-11-16T10:47:23.556Z,61.55
2022-11-16T10:49:58.256Z,64.55
2022-11-16T10:52:25.255Z,65.15
2022-11-16T10:54:52.162Z,60.70
2022-11-16T10:57:19.419Z,63.65
2022-11-16T10:59:48.873Z,65.03
2022-11-16T11:02:33.523Z,64.22
2022-11-16T11:05:16.281Z,66.18
2022-11-16T11:07:49.377Z,65.20
2022-11-16T11:10:28.284Z,69.65
2022-11-16T11:13:05.260Z,65.53
2022-11-16T11:18:25.439Z,67.45
2022-11-16T11:21:06.266Z,67.97
2022-11-16T11:23:54.161Z,76.22
2022-11-16T11:26:37.382Z,76.78
2022-11-16T11:29:23.917Z,82.55
2022-11-16T11:31:57.925Z,89.28
2022-11-16T11:34:47.896Z,80.70
2022-11-16T11:37:32.426Z,94.82
2022-11-16T11:40:32.703Z,98.90
2022-11-16T11:43:05.107Z,105.07
2022-11-16T11:46:05.022Z,90.40
2022-11-16T11:48:59.906Z,104.60
2022-11-16T11:51:36.072Z,116.00
2022-11-16T11:54:04.773Z,126.65
2022-11-16T11:56:34.046Z,141.80
2022-11-16T11:59:03.046Z,152.07
2022-11-16T12:02:00.049Z,133.75
2022-11-16T12:04:55.303Z,135.40
2022-11-16T12:07:48.916Z,131.65
2022-11-16T12:10:36.811Z,167.45
2022-11-16T12:13:45.353Z,160.50
2022-11-16T12:16:20.777Z,165.35
2022-11-16T12:18:53.001Z,140.00
2022-11-16T12:21:53.120Z,173.23
2022-11-16T12:24:47.840Z,180.73
2022-11-16T12:27:51.795Z,171.57
2022-11-16T12:30:21.709Z,175.48
2022-11-16T12:32:57.479Z,179.02
2022-11-16T12:35:32.844Z,189.10
2022-11-16T12:37:59.478Z,184.13
2022-11-16T12:40:50.199Z,171.90
2022-11-16T12:43:39.881Z,188.35
2022-11-16T12:46:32.073Z,162.80
2022-11-16T12:49:24.190Z,162.10
2022-11-16T12:52:04.924Z,183.38
2022-11-16T12:55:18.953Z,196.40
2022-11-16T12:57:56.764Z,179.13
2022-11-16T13:00:23.528Z,213.25
2022-11-16T13:03:19.534Z,244.18
2022-11-16T13:06:06.824Z,216.13
2022-11-16T13:08:45.487Z,222.00
2022-11-16T13:11:15.956Z,202.65
2022-11-16T13:13:51.522Z,188.55
2022-11-16T13:16:20.944Z,177.88
2022-11-16T13:18:52.232Z,181.68
2022-11-16T13:21:40.514Z,197.38
2022-11-16T13:24:26.865Z,160.70
2022-11-16T13:27:23.142Z,182.02
2022-11-16T13:30:00.787Z,197.13
2022-11-16T13:32:41.856Z,173.75
2022-11-16T13:35:15.439Z,178.98
2022-11-16T13:37:47.258Z,171.52
2022-11-16T13:40:29.341Z,183.57
2022-11-16T13:43:06.037Z,187.35
2022-11-16T13:45:54.243Z,176.32
2022-11-16T13:48:33.739Z,194.40
2022-11-16T13:51:15.889Z,174.82
2022-11-16T13:56:50.865Z,163.38
2022-11-16T13:59:25.199Z,160.30
2022-11-16T14:01:57.603Z,189.63
2022-11-16T14:04:42.925Z,198.82
2022-11-16T14:07:29.923Z,166.50
2022-11-16T14:09:57.209Z,186.40
2022-11-16T14:12:38.955Z,161.73
2022-11-16T14:15:15.010Z,165.07
2022-11-16T14:18:22.526Z,149.73
2022-11-16T14:20:57.137Z,151.07
2022-11-16T14:23:45.424Z,140.52
2022-11-16T14:26:49.014Z,172.18
2022-11-16T14:29:42.436Z,148.32
2022-11-16T14:32:21.368Z,150.63
2022-11-16T14:34:51.031Z,160.15
2022-11-16T14:37:28.232Z,157.98
2022-11-16T14:40:00.872Z,151.05
2022-11-16T14:42:38.190Z,160.50
2022-11-16T14:45:32.801Z,150.90
2022-11-16T14:48:03.613Z,166.27
2022-11-16T14:50:35.404Z,155.93
2022-11-16T14:53:07.502Z,151.90
2022-11-16T14:55:42.696Z,157.27
2022-11-16T14:58:23.381Z,147.45
2022-11-16T15:00:54.023Z,124.43
2022-11-16T15:03:23.613Z,145.00
2022-11-16T15:05:50.591Z,139.95
2022-11-16T15:08:26.211Z,129.52
2022-11-16T15:10:53.106Z,132.60
2022-11-16T15:13:24.855Z,140.95
2022-11-16T15:16:19.142Z,136.85
2022-11-16T15:18:59.876Z,124.10
